Time;durP1;ratioP1;P1;durP2;ratioP2;P2;SDS_P1;SDS_P2;PMS_P1;PMS_P2;Temp;Humidity;BMP_temperature;BMP_pressure;BME280_temperature;BME280_humidity;BME280_pressure;Samples;Min_cycle;Max_cycle;Signal;HPM_P1;HPM_P2
2021/04/24 00:00:37;;;;;;;24.02;10.13;;;205.20;1740.80;;;;;;5025106;28;20440;-84
2021/04/24 00:03:03;;;;;;;20.65;11.68;;;205.20;1715.20;;;;;;5026104;28;20132;-84
2021/04/24 00:05:41;;;;;;;20.23;10.25;;;205.20;1740.80;;;;;;5018551;28;20029;-84
2021/04/24 00:08:09;;;;;;;26.65;13.10;;;205.20;1715.20;;;;;;5018086;28;20033;-84
2021/04/24 00:10:40;;;;;;;26.63;11.93;;;205.20;1715.20;;;;;;5018153;28;20083;-84
2021/04/24 00:13:08;;;;;;;27.02;14.43;;;205.20;1715.20;;;;;;5018781;28;20512;-84
2021/04/24 00:15:37;;;;;;;17.25;11.23;;;205.10;1740.80;;;;;;5018500;28;20121;-84
2021/04/24 00:18:05;;;;;;;25.92;12.02;;;205.00;1740.80;;;;;;5018466;28;20041;-84
2021/04/24 00:20:31;;;;;;;20.58;10.80;;;205.10;1740.80;;;;;;5018139;28;20068;-84
2021/04/24 00:22:57;;;;;;;20.52;12.43;;;205.00;1740.80;;;;;;5018145;28;20041;-84
2021/04/24 00:25:23;;;;;;;20.50;11.00;;;204.90;1740.80;;;;;;5018097;28;20045;-84
2021/04/24 00:27:49;;;;;;;21.10;12.02;;;204.80;1766.40;;;;;;5018372;28;20440;-84
2021/04/24 00:30:19;;;;;;;20.33;12.07;;;204.80;1740.80;;;;;;5018306;28;20038;-84
2021/04/24 00:32:46;;;;;;;22.65;11.75;;;204.80;1740.80;;;;;;5018401;28;20038;-84
2021/04/24 00:35:16;;;;;;;23.50;13.20;;;204.80;1766.40;;;;;;5018236;28;20030;-84
2021/04/24 00:37:42;;;;;;;19.40;12.13;;;204.80;1792.00;;;;;;5017787;28;20041;-84
2021/04/24 00:40:09;;;;;;;21.90;12.27;;;204.80;1766.40;;;;;;5017625;28;20048;-84
2021/04/24 00:42:36;;;;;;;26.55;13.50;;;204.80;1766.40;;;;;;5017689;28;20172;-84
2021/04/24 00:45:06;;;;;;;17.50;10.13;;;204.80;1766.40;;;;;;5017705;28;20030;-84
2021/04/24 00:47:31;;;;;;;22.38;13.05;;;204.80;1766.40;;;;;;5018028;28;20033;-84
2021/04/24 00:49:57;;;;;;;26.73;13.15;;;180.10;1766.40;;;;;;5020540;28;20064;-84
2021/04/24 00:52:23;;;;;;;20.83;12.80;;;204.80;1792.00;;;;;;5040154;28;20087;-83
2021/04/24 00:54:49;;;;;;;29.52;13.45;;;180.10;1766.40;;;;;;5041032;28;20032;-85
2021/04/24 00:57:16;;;;;;;26.13;14.55;;;180.10;1766.40;;;;;;5054613;28;20037;-83
2021/04/24 00:59:42;;;;;;;26.10;14.55;;;204.80;1766.40;;;;;;5037407;28;20527;-83
2021/04/24 01:02:09;;;;;;;27.95;15.32;;;179.90;1766.40;;;;;;5037138;28;20068;-83
2021/04/24 01:04:35;;;;;;;39.22;24.50;;;180.10;1817.60;;;;;;5037163;28;20037;-83
2021/04/24 01:07:08;;;;;;;46.40;25.95;;;180.00;1792.00;;;;;;5037383;28;20037;-83
2021/04/24 01:09:34;;;;;;;47.70;27.38;;;180.00;1792.00;;;;;;5053653;28;20029;-82
2021/04/24 01:12:00;;;;;;;33.30;19.20;;;180.00;1792.00;;;;;;5037116;28;20033;-83
2021/04/24 01:14:27;;;;;;;35.13;19.35;;;179.90;1792.00;;;;;;5063061;28;20084;-83
2021/04/24 01:16:53;;;;;;;31.05;17.60;;;179.90;1817.60;;;;;;5061657;28;20031;-83
2021/04/24 01:19:22;;;;;;;33.50;19.88;;;179.90;1817.60;;;;;;5061493;28;20029;-82
2021/04/24 01:21:50;;;;;;;39.13;18.88;;;179.90;1817.60;;;;;;5078403;28;20013;-82
2021/04/24 01:24:17;;;;;;;30.73;17.08;;;179.90;1792.00;;;;;;5061310;28;20021;-82
2021/04/24 01:26:43;;;;;;;24.42;15.85;;;179.90;1817.60;;;;;;5077968;28;20028;-82
2021/04/24 01:29:10;;;;;;;27.52;14.95;;;179.90;1817.60;;;;;;5061133;28;20104;-83
2021/04/24 01:31:38;;;;;;;23.67;14.03;;;179.80;1817.60;;;;;;5041321;28;20044;-84
2021/04/24 01:34:07;;;;;;;21.92;12.65;;;179.80;1817.60;;;;;;5037652;28;20091;-84
2021/04/24 01:36:36;;;;;;;15.88;10.68;;;179.70;1843.20;;;;;;5037459;28;20040;-84
2021/04/24 01:39:05;;;;;;;24.15;10.77;;;179.70;1817.60;;;;;;5053815;28;20072;-84
2021/04/24 01:41:31;;;;;;;19.08;9.90;;;179.70;1843.20;;;;;;5037036;28;20033;-83
2021/04/24 01:43:56;;;;;;;21.03;11.50;;;179.70;1843.20;;;;;;5037063;28;20049;-84
2021/04/24 01:46:24;;;;;;;18.85;10.68;;;179.60;1843.20;;;;;;5053955;28;20043;-84
2021/04/24 01:48:53;;;;;;;16.57;9.77;;;179.60;1843.20;;;;;;5036817;28;20041;-84
2021/04/24 01:51:20;;;;;;;21.47;12.20;;;179.60;1868.80;;;;;;5037692;28;20037;-83
2021/04/24 01:53:46;;;;;;;27.17;12.77;;;179.50;1868.80;;;;;;5038121;28;20472;-83
2021/04/24 01:56:13;;;;;;;27.77;12.73;;;179.40;1894.40;;;;;;5037126;28;20037;-83
2021/04/24 01:58:39;;;;;;;24.13;13.05;;;179.40;1894.40;;;;;;5052570;28;20128;-84
2021/04/24 02:01:10;;;;;;;23.03;11.90;;;179.40;1868.80;;;;;;5036566;28;20036;-83
2021/04/24 02:03:36;;;;;;;20.97;11.63;;;179.40;1894.40;;;;;;5036288;28;20041;-83
2021/04/24 02:06:07;;;;;;;19.33;11.30;;;179.50;1894.40;;;;;;5037185;28;20033;-84
2021/04/24 02:08:40;;;;;;;23.23;12.70;;;179.40;1894.40;;;;;;5036231;28;20041;-84
2021/04/24 02:11:09;;;;;;;24.97;13.93;;;179.40;1894.40;;;;;;5036322;28;20037;-83
2021/04/24 02:13:45;;;;;;;27.27;16.23;;;179.30;1868.80;;;;;;5036178;28;20415;-84
2021/04/24 02:16:14;;;;;;;35.57;20.30;;;179.40;1868.80;;;;;;5035942;28;20037;-84
2021/04/24 02:18:40;;;;;;;28.33;15.33;;;179.40;1868.80;;;;;;5052504;28;20132;-83
2021/04/24 02:21:06;;;;;;;22.73;12.80;;;179.30;1920.00;;;;;;5036168;28;20037;-84
2021/04/24 02:23:39;;;;;;;27.03;13.63;;;179.30;1868.80;;;;;;5052258;28;20083;-83
2021/04/24 02:26:07;;;;;;;23.65;14.48;;;179.30;1868.80;;;;;;5040095;28;20079;-84
2021/04/24 02:28:33;;;;;;;32.70;15.13;;;179.20;1868.80;;;;;;5039427;28;20151;-84
2021/04/24 02:31:06;;;;;;;28.13;14.00;;;179.20;1894.40;;;;;;5056159;28;20112;-84
2021/04/24 02:33:34;;;;;;;30.67;16.90;;;179.20;1894.40;;;;;;5037835;28;20094;-84
2021/04/24 02:36:01;;;;;;;24.30;13.97;;;154.50;1920.00;;;;;;5040271;28;20029;-84
2021/04/24 02:38:32;;;;;;;25.47;13.27;;;154.40;1945.60;;;;;;5063150;28;20052;-84
2021/04/24 02:41:02;;;;;;;25.13;14.50;;;154.30;1971.20;;;;;;5048763;28;20432;-84
2021/04/24 02:43:29;;;;;;;21.77;11.43;;;154.30;1920.00;;;;;;5059653;28;20096;-84
2021/04/24 02:45:58;;;;;;;21.93;11.10;;;154.30;1945.60;;;;;;5040588;28;20037;-84
2021/04/24 02:48:24;;;;;;;25.03;12.97;;;154.30;1920.00;;;;;;5057488;28;20393;-84
2021/04/24 02:50:50;;;;;;;20.23;9.93;;;154.30;1920.00;;;;;;5057330;28;20118;-84
2021/04/24 02:53:19;;;;;;;18.07;9.10;;;153.90;1920.00;;;;;;5039293;28;20041;-83
2021/04/24 02:55:48;;;;;;;22.43;10.77;;;154.20;1920.00;;;;;;5041241;28;20029;-83
2021/04/24 02:58:17;;;;;;;24.87;12.60;;;154.20;1894.40;;;;;;5060692;28;20123;-83
2021/04/24 03:00:43;;;;;;;30.97;15.63;;;154.10;1920.00;;;;;;5062424;28;20029;-84
2021/04/24 03:03:11;;;;;;;18.50;9.47;;;154.10;1920.00;;;;;;5044163;28;20064;-84
2021/04/24 03:05:41;;;;;;;24.47;11.83;;;153.70;1996.80;;;;;;5044396;28;20480;-83
2021/04/24 03:08:11;;;;;;;20.03;10.40;;;153.80;1996.80;;;;;;5040216;28;20534;-84
2021/04/24 03:10:41;;;;;;;18.57;9.83;;;153.80;1996.80;;;;;;5039505;28;20048;-84
2021/04/24 03:13:09;;;;;;;21.20;12.47;;;153.90;1971.20;;;;;;5039628;28;20044;-84
2021/04/24 03:15:35;;;;;;;22.60;11.37;;;154.00;1945.60;;;;;;5038897;28;20064;-84
2021/04/24 03:18:01;;;;;;;27.73;13.23;;;154.20;1971.20;;;;;;5039064;28;20037;-84
2021/04/24 03:20:35;;;;;;;26.97;14.37;;;154.40;1945.60;;;;;;5039213;28;20041;-84
2021/04/24 03:23:06;;;;;;;28.07;16.20;;;154.10;1971.20;;;;;;5038991;28;20036;-84
2021/04/24 03:25:32;;;;;;;36.47;17.53;;;154.00;1971.20;;;;;;5038836;28;20397;-83
2021/04/24 03:28:11;;;;;;;;;;;;;;;;;;;;;
2021/04/24 03:30:37;;;;;;;25.97;14.90;;;154.10;1971.20;;;;;;5056424;28;20037;-84
2021/04/24 03:33:06;;;;;;;22.90;14.70;;;154.10;1945.60;;;;;;5038333;28;20532;-84
2021/04/24 03:35:34;;;;;;;22.53;13.77;;;154.10;1971.20;;;;;;5038546;28;20040;-83
2021/04/24 03:38:00;;;;;;;21.33;12.03;;;154.00;1996.80;;;;;;5038832;28;20033;-83
2021/04/24 03:40:26;;;;;;;22.17;13.47;;;154.00;1996.80;;;;;;5038522;28;20083;-84
2021/04/24 03:42:52;;;;;;;36.33;14.00;;;154.20;2022.40;;;;;;5037715;28;20420;-84
2021/04/24 03:45:19;;;;;;;24.87;12.13;;;154.00;1996.80;;;;;;5038678;28;20029;-84
2021/04/24 03:47:50;;;;;;;34.00;16.43;;;154.00;1996.80;;;;;;5037770;28;20098;-83
2021/04/24 03:50:17;;;;;;;25.07;12.27;;;153.90;1996.80;;;;;;5038781;28;20074;-83
2021/04/24 03:52:44;;;;;;;23.43;13.50;;;153.90;2022.40;;;;;;5050863;28;20044;-83
2021/04/24 03:55:10;;;;;;;29.27;13.23;;;154.00;2022.40;;;;;;5062532;28;20052;-85
2021/04/24 03:57:36;;;;;;;23.10;11.40;;;154.30;2048.00;;;;;;5062529;28;20024;-83
2021/04/24 04:00:11;;;;;;;29.07;12.27;;;153.80;2048.00;;;;;;5061945;28;20044;-83
2021/04/24 04:02:48;;;;;;;26.43;12.37;;;153.90;2048.00;;;;;;5062474;28;20041;-84
2021/04/24 04:05:15;;;;;;;33.57;13.50;;;153.90;2022.40;;;;;;5062317;28;20097;-84
2021/04/24 04:07:42;;;;;;;24.43;13.93;;;153.80;2022.40;;;;;;5052309;28;20032;-84
2021/04/24 04:10:19;;;;;;;36.10;15.67;;;153.90;1996.80;;;;;;5039437;28;20033;-84
2021/04/24 04:12:53;;;;;;;27.40;14.10;;;153.90;1996.80;;;;;;5039032;28;20033;-84
2021/04/24 04:15:24;;;;;;;23.20;14.77;;;153.90;1996.80;;;;;;5056569;28;20392;-84
2021/04/24 04:18:12;;;;;;;26.83;15.27;;;154.00;1996.80;;;;;;5038648;28;20048;-84
2021/04/24 04:20:43;;;;;;;37.40;17.00;;;153.90;1996.80;;;;;;5038574;28;20103;-83
2021/04/24 04:23:14;;;;;;;32.10;14.93;;;154.00;2022.40;;;;;;5037901;28;20048;-84
2021/04/24 04:25:44;;;;;;;21.67;13.77;;;154.10;1996.80;;;;;;5037836;28;20136;-83
2021/04/24 04:28:21;;;;;;;31.10;14.53;;;154.00;1996.80;;;;;;5037999;28;20547;-83
2021/04/24 04:30:54;;;;;;;26.03;15.00;;;154.00;2022.40;;;;;;5036969;28;20037;-84
2021/04/24 04:33:20;;;;;;;;;;;154.10;2022.40;;;;;;5038045;28;20033;-84
2021/04/24 04:35:47;;;;;;;20.33;11.97;;;154.10;2022.40;;;;;;5054776;28;19944;-84
2021/04/24 04:38:14;;;;;;;22.87;12.20;;;154.10;1996.80;;;;;;5037427;28;20369;-84
2021/04/24 04:40:41;;;;;;;27.67;12.03;;;154.10;1971.20;;;;;;5037593;28;20098;-84
2021/04/24 04:43:07;;;;;;;28.10;14.93;;;154.20;1971.20;;;;;;5037626;28;20052;-84
2021/04/24 04:45:34;;;;;;;34.33;18.33;;;154.10;1971.20;;;;;;5037821;28;20094;-84
2021/04/24 04:48:00;;;;;;;36.00;15.27;;;154.20;1971.20;;;;;;5036718;28;20033;-84
2021/04/24 04:50:31;;;;;;;31.20;12.93;;;154.20;1971.20;;;;;;5037012;28;20515;-83
2021/04/24 04:52:58;;;;;;;23.60;13.17;;;154.20;1971.20;;;;;;5037640;28;20036;-85
2021/04/24 04:55:33;;;;;;;31.17;14.33;;;154.30;1971.20;;;;;;5036633;28;20040;-85
2021/04/24 04:57:59;;;;;;;95.23;49.10;;;154.30;1971.20;;;;;;5037294;28;20040;-85
2021/04/24 05:00:25;;;;;;;50.63;34.43;;;154.20;1971.20;;;;;;5037317;28;20037;-84
2021/04/24 05:02:52;;;;;;;27.70;15.47;;;154.30;1945.60;;;;;;5037430;28;20045;-84
2021/04/24 05:05:19;;;;;;;39.33;26.47;;;154.40;1945.60;;;;;;5037264;28;20033;-84
2021/04/24 05:07:48;;;;;;;52.23;30.30;;;154.40;1945.60;;;;;;5037220;28;20044;-84
2021/04/24 05:10:14;;;;;;;28.33;14.87;;;154.50;1945.60;;;;;;5036851;28;20037;-85
2021/04/24 05:12:40;;;;;;;40.47;22.90;;;179.20;1920.00;;;;;;5038053;28;20033;-84
2021/04/24 05:15:07;;;;;;;29.03;15.47;;;179.20;1920.00;;;;;;5037948;28;20041;-84
2021/04/24 05:17:33;;;;;;;24.53;16.10;;;179.30;1920.00;;;;;;5038003;28;20045;-85
2021/04/24 05:19:59;;;;;;;39.33;21.43;;;179.40;1920.00;;;;;;5037763;28;20041;-84
2021/04/24 05:22:24;;;;;;;34.77;20.50;;;179.40;1945.60;;;;;;5038084;28;20052;-85
2021/04/24 05:24:50;;;;;;;43.10;21.90;;;179.40;1945.60;;;;;;5036861;28;20041;-84
2021/04/24 05:27:16;;;;;;;39.90;19.40;;;179.40;1945.60;;;;;;5036926;28;20060;-84
2021/04/24 05:29:42;;;;;;;38.60;20.10;;;179.40;1945.60;;;;;;5036888;28;20388;-84
2021/04/24 05:32:08;;;;;;;43.00;23.17;;;179.40;1971.20;;;;;;5037107;28;20067;-84
2021/04/24 05:34:34;;;;;;;54.90;28.17;;;179.50;1971.20;;;;;;5037039;28;20034;-84
2021/04/24 05:37:01;;;;;;;37.47;24.73;;;179.40;1971.20;;;;;;5036991;28;20036;-84
2021/04/24 05:39:27;;;;;;;41.20;24.30;;;179.60;1971.20;;;;;;5036098;28;20036;-84
2021/04/24 05:41:52;;;;;;;47.13;25.80;;;179.70;1945.60;;;;;;5036951;28;20033;-84
2021/04/24 05:44:19;;;;;;;41.27;24.87;;;179.60;1945.60;;;;;;5036533;28;20041;-85
2021/04/24 05:46:45;;;;;;;45.20;24.20;;;179.70;1945.60;;;;;;5036801;28;20116;-84
2021/04/24 05:49:11;;;;;;;52.07;23.70;;;179.70;1945.60;;;;;;5036427;28;20049;-84
2021/04/24 05:51:37;;;;;;;44.17;22.33;;;179.90;1945.60;;;;;;5036631;28;20036;-84
2021/04/24 05:54:03;;;;;;;45.07;25.07;;;179.90;1945.60;;;;;;5036329;28;20400;-85
2021/04/24 05:56:29;;;;;;;48.53;26.93;;;179.90;1945.60;;;;;;5036799;28;20041;-85
2021/04/24 05:58:55;;;;;;;39.20;22.77;;;179.90;1945.60;;;;;;5037420;28;20040;-84
2021/04/24 06:01:20;;;;;;;41.92;25.48;;;180.00;1945.60;;;;;;5039374;28;20039;-84
2021/04/24 06:03:47;;;;;;;56.37;26.47;;;180.00;1945.60;;;;;;5038481;28;20554;-84
2021/04/24 06:06:18;;;;;;;45.27;25.20;;;179.90;1920.00;;;;;;5037398;28;20072;-84
2021/04/24 06:08:44;;;;;;;42.20;22.27;;;204.80;1920.00;;;;;;5035572;28;20477;-84
2021/04/24 06:11:09;;;;;;;45.47;22.90;;;204.80;1894.40;;;;;;5035821;28;20033;-84
2021/04/24 06:13:41;;;;;;;39.55;21.67;;;204.90;1894.40;;;;;;5035815;28;20039;-84
2021/04/24 06:16:07;;;;;;;40.20;19.40;;;205.10;1868.80;;;;;;5036720;28;20087;-85
2021/04/24 06:18:33;;;;;;;38.67;20.60;;;205.20;1868.80;;;;;;5035889;28;20477;-84
2021/04/24 06:20:59;;;;;;;41.63;20.23;;;205.30;1868.80;;;;;;5036204;28;20037;-83
2021/04/24 06:23:28;;;;;;;38.30;21.20;;;205.50;1843.20;;;;;;5043013;28;20044;-85
2021/04/24 06:25:54;;;;;;;36.73;20.77;;;205.60;1868.80;;;;;;5040442;28;20029;-83
2021/04/24 06:28:31;;;;;;;38.00;19.43;;;205.70;1817.60;;;;;;5039196;28;20108;-83
2021/04/24 06:30:57;;;;;;;33.15;19.00;;;205.70;1843.20;;;;;;5036827;28;20036;-84
2021/04/24 06:33:23;;;;;;;33.10;19.50;;;230.50;1817.60;;;;;;5036648;28;20033;-83
2021/04/24 06:35:49;;;;;;;32.03;19.17;;;230.60;1792.00;;;;;;5037528;28;20037;-84
2021/04/24 06:45:27;;;;;;;38.65;17.83;;;231.00;1740.80;;;;;;5010270;28;20042;-87
2021/04/24 06:55:56;;;;;;;34.30;19.25;;;256.20;1740.80;;;;;;4953789;28;20098;-89
2021/04/24 06:58:27;;;;;;;41.75;18.95;;;256.40;1689.60;;;;;;4954555;28;20558;-90
2021/04/24 07:11:35;;;;;;;31.75;17.50;;;282.00;1689.60;;;;;;4842008;29;20143;-80
2021/04/24 07:14:07;;;;;;;27.77;17.65;;;282.20;1689.60;;;;;;4825671;29;20069;-82
2021/04/24 07:16:39;;;;;;;34.83;17.70;;;282.40;1587.20;;;;;;4842686;29;20037;-80
2021/04/24 07:19:18;;;;;;;29.08;18.52;;;307.20;1638.40;;;;;;4827520;29;20046;-81
2021/04/24 07:22:18;;;;;;;34.03;19.75;;;307.40;1612.80;;;;;;4812753;29;20072;-80
2021/04/24 07:24:49;;;;;;;31.05;17.00;;;307.60;1587.20;;;;;;4812318;29;20089;-85
2021/04/24 07:34:19;;;;;;;28.88;14.85;;;308.10;1484.80;;;;;;4845235;29;20468;-83
2021/04/24 07:43:33;;;;;;;29.80;14.97;;;333.30;1459.20;;;;;;4938034;29;20115;-81
2021/04/24 07:53:17;;;;;;;22.23;11.27;;;358.50;1254.40;;;;;;4975140;28;20061;-84
2021/04/24 07:59:00;;;;;;;18.73;10.88;;;358.60;1254.40;;;;;;4942039;29;20031;-83
2021/04/24 08:01:31;;;;;;;20.33;11.45;;;358.80;1254.40;;;;;;4955831;29;20507;-82
2021/04/24 08:03:57;;;;;;;22.15;10.27;;;358.90;1280.00;;;;;;4954847;29;20039;-82
2021/04/24 08:06:32;;;;;;;21.63;10.98;;;359.20;1254.40;;;;;;4954997;29;20035;-82
2021/04/24 08:09:05;;;;;;;16.75;10.13;;;359.30;1203.20;;;;;;4954999;29;20130;-82
2021/04/24 08:12:03;;;;;;;19.52;8.55;;;359.30;1126.40;;;;;;4955065;29;20400;-82
2021/04/24 08:14:39;;;;;;;19.60;8.60;;;359.10;1126.40;;;;;;4897935;29;20052;-81
2021/04/24 08:17:15;;;;;;;15.68;8.95;;;359.30;1152.00;;;;;;4895963;29;20120;-85
2021/04/24 08:19:41;;;;;;;19.65;8.60;;;384.10;1177.60;;;;;;4897044;29;20111;-83
2021/04/24 08:22:08;;;;;;;13.52;7.05;;;384.10;1100.80;;;;;;4899964;29;20047;-81
2021/04/24 08:24:36;;;;;;;19.10;9.43;;;384.50;1152.00;;;;;;4882845;29;20040;-83
2021/04/24 08:27:02;;;;;;;14.63;7.38;;;384.80;1152.00;;;;;;4881270;29;20569;-82
2021/04/24 08:29:30;;;;;;;13.52;8.55;;;409.70;1177.60;;;;;;4880113;29;20049;-82
2021/04/24 08:31:56;;;;;;;15.98;7.85;;;409.70;1126.40;;;;;;4880354;29;20032;-84
2021/04/24 08:34:24;;;;;;;14.45;7.40;;;410.00;1203.20;;;;;;4896216;29;20139;-83
2021/04/24 08:36:51;;;;;;;15.63;7.32;;;410.30;1152.00;;;;;;4970320;28;20035;-83
2021/04/24 08:39:29;;;;;;;18.67;7.25;;;410.30;1152.00;;;;;;4990127;28;20038;-79
2021/04/24 08:42:40;;;;;;;15.43;8.68;;;435.40;1126.40;;;;;;4992284;28;20459;-83
2021/04/24 08:45:35;;;;;;;14.10;7.65;;;435.20;1075.20;;;;;;4974865;28;20042;-85
2021/04/24 08:48:05;;;;;;;14.45;7.97;;;409.80;1049.60;;;;;;4968508;28;20030;-84
2021/04/24 08:51:17;;;;;;;15.70;7.35;;;410.10;1075.20;;;;;;4981669;28;20050;-85
2021/04/24 08:54:00;;;;;;;15.02;7.93;;;410.00;1049.60;;;;;;4931686;29;20048;-85
2021/04/24 08:56:30;;;;;;;13.18;7.05;;;410.20;1024.00;;;;;;4935196;29;20184;-85
2021/04/24 08:58:59;;;;;;;10.63;6.05;;;410.50;1075.20;;;;;;4932645;29;20575;-82
2021/04/24 09:01:28;;;;;;;19.27;7.38;;;435.40;1049.60;;;;;;4932147;29;20092;-80
2021/04/24 09:03:56;;;;;;;18.80;9.05;;;435.60;1024.00;;;;;;4934395;29;20051;-81
2021/04/24 09:06:23;;;;;;;11.15;6.68;;;435.70;1024.00;;;;;;4932042;29;20519;-82
2021/04/24 09:08:57;;;;;;;11.45;7.55;;;435.60;1024.00;;;;;;4933918;29;20528;-87
2021/04/24 09:11:23;;;;;;;12.65;9.27;;;435.70;998.40;;;;;;4935095;29;20526;-85
2021/04/24 09:14:07;;;;;;;12.15;6.63;;;436.00;998.40;;;;;;4934631;29;20035;-85
2021/04/24 09:16:34;;;;;;;14.38;7.20;;;460.90;998.40;;;;;;4933034;29;20887;-82
2021/04/24 09:19:43;;;;;;;13.80;7.25;;;460.90;998.40;;;;;;4931672;29;20075;-80
2021/04/24 09:22:21;;;;;;;12.43;5.85;;;461.00;1024.00;;;;;;4918702;29;20515;-89
2021/04/24 09:24:55;;;;;;;15.77;5.97;;;461.20;998.40;;;;;;4933849;29;20096;-80
2021/04/24 09:27:47;;;;;;;12.38;7.22;;;461.30;998.40;;;;;;4933890;29;20100;-81
2021/04/24 09:30:30;;;;;;;19.88;7.32;;;461.30;947.20;;;;;;4974629;28;20350;-79
2021/04/24 09:33:02;;;;;;;13.88;6.30;;;461.20;1024.00;;;;;;5031075;28;20041;-81
2021/04/24 09:35:39;;;;;;;22.08;12.77;;;461.40;998.40;;;;;;5017838;28;20025;-78
2021/04/24 09:38:04;;;;;;;12.90;8.48;;;486.50;1049.60;;;;;;5042278;28;20121;-80
2021/04/24 09:40:30;;;;;;;12.88;7.53;;;486.50;947.20;;;;;;5030040;28;20500;-80
2021/04/24 09:43:07;;;;;;;11.27;8.02;;;486.60;947.20;;;;;;5038171;28;20072;-80
2021/04/24 09:45:42;;;;;;;13.57;7.57;;;486.80;921.60;;;;;;5041549;28;20029;-80
2021/04/24 09:48:25;;;;;;;10.45;7.07;;;486.90;947.20;;;;;;5043482;28;20049;-80
2021/04/24 09:50:52;;;;;;;13.48;6.00;;;487.00;947.20;;;;;;5035859;28;20021;-82
2021/04/24 09:53:24;;;;;;;13.15;6.10;;;487.10;896.00;;;;;;5038981;28;20511;-84
2021/04/24 09:55:54;;;;;;;16.02;9.95;;;487.20;921.60;;;;;;5036531;28;20033;-82
2021/04/24 09:58:46;;;;;;;16.30;13.50;;;487.20;896.00;;;;;;5054800;28;20041;-83
2021/04/24 10:01:23;;;;;;;78.35;18.75;;;487.20;921.60;;;;;;5033085;28;20040;-82
2021/04/24 10:03:50;;;;;;;14.18;6.68;;;487.30;870.40;;;;;;5034167;28;20044;-81
2021/04/24 10:06:37;;;;;;;12.38;6.07;;;487.20;921.60;;;;;;5035464;28;20029;-82
2021/04/24 10:09:25;;;;;;;10.15;6.20;;;487.20;896.00;;;;;;5034503;28;20468;-81
2021/04/24 10:12:13;;;;;;;8.98;5.32;;;512.10;896.00;;;;;;5019614;28;20091;-83
2021/04/24 10:14:48;;;;;;;9.85;6.35;;;512.10;921.60;;;;;;5033298;28;20030;-81
2021/04/24 10:17:16;;;;;;;15.73;6.38;;;487.30;870.40;;;;;;5033809;28;20083;-82
2021/04/24 10:19:43;;;;;;;12.98;5.88;;;512.30;896.00;;;;;;5015501;28;20033;-81
2021/04/24 10:22:12;;;;;;;10.57;5.53;;;512.40;819.20;;;;;;5044820;28;20041;-82
2021/04/24 10:24:38;;;;;;;11.70;6.63;;;512.50;819.20;;;;;;5034453;28;20049;-81
2021/04/24 10:27:05;;;;;;;13.38;6.30;;;512.70;793.60;;;;;;5035800;28;20037;-82
2021/04/24 10:29:31;;;;;;;9.70;5.93;;;487.00;819.20;;;;;;5024484;28;20561;-82
2021/04/24 10:31:58;;;;;;;11.00;5.93;;;486.90;844.80;;;;;;5031490;28;20056;-80
2021/04/24 10:34:24;;;;;;;10.50;5.88;;;487.00;819.20;;;;;;5030149;28;20188;-81
2021/04/24 10:36:51;;;;;;;10.18;5.65;;;487.30;844.80;;;;;;5032599;28;20029;-82
2021/04/24 10:39:25;;;;;;;10.32;5.93;;;487.20;819.20;;;;;;5034236;28;20140;-83
2021/04/24 10:41:54;;;;;;;10.93;6.60;;;512.20;896.00;;;;;;5034341;28;20037;-81
2021/04/24 10:44:22;;;;;;;19.17;6.28;;;512.50;819.20;;;;;;5051662;28;20045;-81
2021/04/24 10:46:56;;;;;;;19.10;7.35;;;537.60;844.80;;;;;;5038877;28;20028;-81
2021/04/24 10:49:23;;;;;;;17.00;7.60;;;537.60;844.80;;;;;;5039096;28;20396;-81
2021/04/24 10:52:18;;;;;;;15.30;6.80;;;512.20;819.20;;;;;;5055327;28;20574;-81
2021/04/24 10:55:04;;;;;;;11.90;7.97;;;487.10;870.40;;;;;;5038560;28;20037;-82
2021/04/24 10:57:39;;;;;;;15.00;7.55;;;487.20;819.20;;;;;;5038711;28;20104;-81
2021/04/24 11:00:05;;;;;;;12.00;6.40;;;512.40;947.20;;;;;;5055377;28;20029;-81
2021/04/24 11:02:52;;;;;;;12.30;7.25;;;512.40;793.60;;;;;;5038937;28;20480;-82
2021/04/24 11:05:22;;;;;;;13.13;6.80;;;512.20;819.20;;;;;;5038876;28;20175;-82
2021/04/24 11:08:09;;;;;;;11.98;6.20;;;512.10;819.20;;;;;;5055669;28;20506;-81
2021/04/24 11:11:01;;;;;;;13.40;6.35;;;512.20;844.80;;;;;;5056753;28;20033;-82
2021/04/24 11:13:30;;;;;;;9.35;5.80;;;512.10;819.20;;;;;;5055363;28;20029;-82
2021/04/24 11:16:05;;;;;;;10.75;6.35;;;512.80;793.60;;;;;;5055599;28;20037;-82
2021/04/24 11:18:39;;;;;;;13.95;5.85;;;537.90;870.40;;;;;;5038448;28;20037;-81
2021/04/24 11:21:18;;;;;;;12.60;7.57;;;538.50;896.00;;;;;;5038701;28;20072;-80
2021/04/24 11:24:00;;;;;;;13.13;6.97;;;538.00;819.20;;;;;;5054674;28;20045;-81
2021/04/24 11:26:35;;;;;;;15.05;7.72;;;537.80;819.20;;;;;;5037775;28;20036;-81
2021/04/24 11:29:06;;;;;;;16.70;8.93;;;538.10;793.60;;;;;;5054948;28;20033;-81
2021/04/24 11:31:57;;;;;;;12.93;6.97;;;538.50;870.40;;;;;;5054771;28;20037;-81
2021/04/24 11:34:29;;;;;;;12.23;6.55;;;538.30;844.80;;;;;;5055646;28;20029;-81
2021/04/24 11:37:23;;;;;;;11.00;5.70;;;538.40;844.80;;;;;;5054919;28;20127;-81
2021/04/24 11:40:09;;;;;;;16.13;6.22;;;563.30;844.80;;;;;;5038066;28;20641;-81
2021/04/24 11:43:02;;;;;;;8.82;6.00;;;563.80;844.80;;;;;;5038315;28;20086;-81
2021/04/24 11:45:50;;;;;;;9.80;5.82;;;512.90;819.20;;;;;;5037505;28;20498;-81
2021/04/24 11:48:37;;;;;;;22.90;12.70;;;512.60;793.60;;;;;;5038047;28;20056;-81
2021/04/24 11:51:03;;;;;;;9.60;6.32;;;512.50;793.60;;;;;;5037885;28;20048;-82
2021/04/24 11:53:44;;;;;;;21.30;9.43;;;512.10;870.40;;;;;;5037227;28;20045;-81
2021/04/24 11:56:13;;;;;;;25.38;12.50;;;537.80;896.00;;;;;;5055628;28;20061;-81
2021/04/24 11:58:49;;;;;;;22.20;9.82;;;538.10;768.00;;;;;;5037340;28;20127;-81
2021/04/24 12:01:25;;;;;;;15.80;7.28;;;538.20;844.80;;;;;;5037981;28;20362;-83
2021/04/24 12:03:52;;;;;;;11.20;6.38;;;538.50;870.40;;;;;;5037767;28;20375;-81
2021/04/24 12:06:41;;;;;;;9.52;6.07;;;537.80;844.80;;;;;;5037865;28;20025;-83
2021/04/24 12:09:14;;;;;;;9.88;5.05;;;537.70;844.80;;;;;;5037281;28;20036;-82
2021/04/24 12:11:41;;;;;;;;;;;537.80;819.20;;;;;;5037652;28;20040;-80
2021/04/24 12:14:08;;;;;;;18.58;9.93;;;538.00;793.60;;;;;;5054223;28;19912;-81
2021/04/24 12:16:51;;;;;;;15.48;7.53;;;512.80;768.00;;;;;;5037428;28;20033;-81
2021/04/24 12:19:25;;;;;;;;;;;538.20;870.40;;;;;;5038010;28;20061;-81
2021/04/24 12:22:24;;;;;;;16.25;7.95;;;563.20;870.40;;;;;;5054126;28;19913;-81
2021/04/24 12:24:54;;;;;;;12.32;6.43;;;537.80;870.40;;;;;;5041698;28;20091;-81
2021/04/24 12:27:30;;;;;;;12.90;6.40;;;563.40;896.00;;;;;;5027001;28;20052;-80
2021/04/24 12:29:58;;;;;;;10.07;6.05;;;563.80;844.80;;;;;;5055278;28;20029;-81
2021/04/24 12:32:32;;;;;;;10.20;5.57;;;564.10;819.20;;;;;;5033687;28;20029;-80
2021/04/24 12:35:24;;;;;;;8.32;5.35;;;588.90;819.20;;;;;;5037560;28;20037;-81
2021/04/24 12:38:07;;;;;;;7.45;4.53;;;589.00;768.00;;;;;;5051224;28;20029;-81
2021/04/24 12:40:39;;;;;;;13.63;4.30;;;589.10;768.00;;;;;;5035287;28;20403;-83
2021/04/24 12:43:08;;;;;;;9.10;4.53;;;589.30;768.00;;;;;;5040821;28;20445;-81
2021/04/24 12:45:37;;;;;;;6.72;4.25;;;588.90;716.80;;;;;;5073348;28;20053;-81
2021/04/24 12:48:04;;;;;;;7.50;5.07;;;589.00;768.00;;;;;;5071426;28;20093;-81
2021/04/24 12:50:35;;;;;;;8.57;4.90;;;589.20;742.40;;;;;;5053818;28;20048;-80
2021/04/24 12:53:02;;;;;;;11.48;6.05;;;589.00;844.80;;;;;;5072053;28;20056;-80
2021/04/24 12:55:35;;;;;;;8.05;4.60;;;589.10;742.40;;;;;;5055280;28;20036;-81
2021/04/24 12:58:12;;;;;;;9.55;4.55;;;563.60;716.80;;;;;;5051563;28;20032;-80
2021/04/24 13:00:48;;;;;;;9.02;5.00;;;564.00;793.60;;;;;;5034802;28;20041;-82
2021/04/24 13:03:34;;;;;;;7.10;4.25;;;588.90;768.00;;;;;;5041423;28;20076;-82
2021/04/24 13:06:12;;;;;;;8.98;4.78;;;589.30;716.80;;;;;;5029964;28;20040;-82
2021/04/24 13:08:38;;;;;;;6.50;4.28;;;589.50;716.80;;;;;;5045370;28;20040;-82
2021/04/24 13:11:09;;;;;;;8.73;4.45;;;589.60;716.80;;;;;;5028124;28;20061;-81
2021/04/24 13:13:37;;;;;;;10.50;5.25;;;589.40;768.00;;;;;;5033003;28;20029;-81
2021/04/24 13:16:05;;;;;;;6.93;4.68;;;589.30;716.80;;;;;;5016774;28;20033;-81
2021/04/24 13:18:41;;;;;;;8.35;5.18;;;589.40;716.80;;;;;;5016875;28;20505;-81